Time;durP1;ratioP1;P1;durP2;ratioP2;P2;SDS_P1;SDS_P2;PMS_P1;PMS_P2;Temp;Humidity;BMP_temperature;BMP_pressure;BME280_temperature;BME280_humidity;BME280_pressure;Samples;Min_cycle;Max_cycle;Signal;HPM_P1;HPM_P2
2021/11/23 00:03:18;;;;;;;4.47;1.83;;;4.80;99.90;;;;;;20978271;28;20035;-45
2021/11/23 00:13:19;;;;;;;9.82;1.42;;;4.70;99.90;;;;;;20976553;28;20487;-44
2021/11/23 00:23:21;;;;;;;3.05;1.38;;;4.80;99.90;;;;;;20977613;28;20051;-44
2021/11/23 00:33:22;;;;;;;4.57;1.58;;;4.90;99.90;;;;;;20976258;28;20041;-45
2021/11/23 00:43:23;;;;;;;4.72;1.77;;;5.00;99.90;;;;;;20977624;28;20051;-44
2021/11/23 00:53:25;;;;;;;3.22;0.80;;;5.00;99.90;;;;;;20968572;28;20040;-44
2021/11/23 01:03:30;;;;;;;3.85;1.63;;;5.10;99.90;;;;;;20973606;28;20067;-45
2021/11/23 01:13:31;;;;;;;5.47;2.05;;;5.20;99.90;;;;;;20978807;28;20468;-45
2021/11/23 01:23:32;;;;;;;3.83;1.38;;;5.30;99.90;;;;;;20977879;28;20036;-45
2021/11/23 01:33:33;;;;;;;3.45;1.67;;;5.40;99.90;;;;;;20990062;28;20043;-45
2021/11/23 01:43:35;;;;;;;3.95;1.50;;;5.50;99.90;;;;;;20984697;28;20048;-45
2021/11/23 01:53:36;;;;;;;2.90;1.23;;;5.60;99.90;;;;;;20989551;28;20035;-45
2021/11/23 02:03:39;;;;;;;4.30;1.55;;;5.70;99.90;;;;;;20984922;28;20055;-45
2021/11/23 02:13:41;;;;;;;6.38;1.88;;;5.80;99.90;;;;;;20986118;28;20029;-45
2021/11/23 02:23:42;;;;;;;3.80;1.52;;;5.90;99.90;;;;;;20986509;28;20054;-45
2021/11/23 02:33:43;;;;;;;3.50;1.50;;;5.90;99.90;;;;;;20964570;28;20036;-44
2021/11/23 02:43:47;;;;;;;3.38;1.25;;;5.90;99.90;;;;;;20983447;28;20040;-45
2021/11/23 02:53:50;;;;;;;3.35;1.60;;;5.90;99.90;;;;;;20987346;28;20032;-44
2021/11/23 03:03:52;;;;;;;4.40;2.00;;;6.00;99.90;;;;;;20982380;28;20049;-45
2021/11/23 03:13:53;;;;;;;3.05;1.30;;;6.00;99.90;;;;;;20985143;28;20032;-45
2021/11/23 03:23:54;;;;;;;6.93;1.45;;;6.10;99.90;;;;;;20979203;28;20043;-44
2021/11/23 03:33:55;;;;;;;2.97;1.30;;;6.10;99.90;;;;;;20982013;28;20033;-45
2021/11/23 03:43:56;;;;;;;2.90;1.15;;;6.20;99.90;;;;;;20977455;28;20051;-44
2021/11/23 03:53:57;;;;;;;3.03;1.52;;;6.30;99.90;;;;;;20976438;28;20056;-44
2021/11/23 04:03:59;;;;;;;4.95;1.10;;;6.30;99.90;;;;;;20968723;28;20165;-44
2021/11/23 04:14:00;;;;;;;2.92;0.52;;;6.30;99.90;;;;;;20976853;28;20047;-45
2021/11/23 04:24:01;;;;;;;3.63;0.82;;;6.40;99.90;;;;;;20962384;28;20052;-45
2021/11/23 04:34:02;;;;;;;6.43;1.23;;;6.50;99.90;;;;;;20954718;28;20495;-45
2021/11/23 04:44:03;;;;;;;2.92;0.93;;;6.60;99.90;;;;;;20974071;28;20048;-45
2021/11/23 04:54:05;;;;;;;4.18;1.70;;;6.60;99.90;;;;;;20974614;28;20047;-45
2021/11/23 05:04:06;;;;;;;0.68;0.45;;;6.70;99.90;;;;;;20967935;28;20517;-44
2021/11/23 05:14:07;;;;;;;2.28;0.82;;;6.70;99.90;;;;;;20972727;28;20038;-45
2021/11/23 05:24:13;;;;;;;2.45;1.02;;;6.60;99.90;;;;;;20975846;28;20039;-44
2021/11/23 05:34:14;;;;;;;2.45;0.75;;;6.50;99.90;;;;;;20972383;28;20036;-44
2021/11/23 05:44:16;;;;;;;1.80;0.70;;;6.50;99.90;;;;;;20974175;28;20527;-44
2021/11/23 05:54:17;;;;;;;2.25;0.85;;;6.50;99.90;;;;;;20970752;28;20063;-45
2021/11/23 06:04:18;;;;;;;3.63;0.90;;;6.70;99.90;;;;;;20969719;28;20040;-45
2021/11/23 06:14:20;;;;;;;2.30;0.90;;;6.80;99.90;;;;;;20982655;28;20052;-45
2021/11/23 06:24:21;;;;;;;2.85;0.98;;;6.80;99.90;;;;;;20987593;28;20504;-45
2021/11/23 06:34:23;;;;;;;1.67;0.50;;;7.00;99.90;;;;;;20984534;28;20066;-44
2021/11/23 06:44:24;;;;;;;1.50;0.65;;;7.00;99.90;;;;;;20989699;28;20541;-45
2021/11/23 06:54:25;;;;;;;2.17;0.63;;;7.10;99.90;;;;;;20991461;28;20032;-44
2021/11/23 07:04:26;;;;;;;2.38;0.73;;;7.10;99.90;;;;;;20987982;28;20060;-45
2021/11/23 07:14:27;;;;;;;3.80;1.30;;;7.10;99.90;;;;;;20987111;28;20758;-45
2021/11/23 07:24:28;;;;;;;3.30;1.10;;;7.30;99.90;;;;;;20966015;28;20044;-45
2021/11/23 07:34:30;;;;;;;2.63;1.05;;;7.30;99.90;;;;;;20980768;28;20403;-45
2021/11/23 07:44:31;;;;;;;6.53;1.75;;;7.40;99.90;;;;;;20985561;28;20051;-45
2021/11/23 07:54:33;;;;;;;2.05;0.90;;;7.40;99.90;;;;;;20981183;28;20047;-44
2021/11/23 08:04:34;;;;;;;3.15;1.02;;;7.60;99.90;;;;;;20982070;28;20056;-44
2021/11/23 08:14:35;;;;;;;2.00;0.65;;;7.70;99.90;;;;;;20985930;28;20040;-45
2021/11/23 08:24:37;;;;;;;2.42;0.63;;;7.80;99.90;;;;;;20979852;28;20056;-44
2021/11/23 08:34:38;;;;;;;5.43;1.48;;;7.90;99.90;;;;;;20977348;28;20055;-44
2021/11/23 08:44:39;;;;;;;4.10;1.35;;;8.00;99.90;;;;;;20972189;28;20488;-44
2021/11/23 08:54:40;;;;;;;2.40;1.23;;;8.20;99.90;;;;;;20975987;28;20028;-44
2021/11/23 09:04:42;;;;;;;2.45;0.98;;;8.40;99.90;;;;;;20975902;28;20052;-45
2021/11/23 09:14:43;;;;;;;3.97;1.13;;;8.60;99.90;;;;;;20976912;28;20036;-45
2021/11/23 09:24:44;;;;;;;2.13;0.77;;;8.80;99.90;;;;;;20977356;28;20035;-45
2021/11/23 09:34:45;;;;;;;3.22;0.73;;;9.10;99.90;;;;;;20966600;28;20041;-44
2021/11/23 09:44:46;;;;;;;2.17;1.02;;;9.30;99.90;;;;;;20975727;28;20056;-45
2021/11/23 09:54:52;;;;;;;1.92;1.00;;;9.40;99.90;;;;;;20994071;28;20574;-44
2021/11/23 10:05:01;;;;;;;2.80;0.98;;;9.40;99.90;;;;;;20991211;28;20699;-44
2021/11/23 10:15:13;;;;;;;4.50;1.25;;;9.80;99.90;;;;;;20990456;28;20036;-44
2021/11/23 10:25:15;;;;;;;1.58;0.82;;;10.30;99.90;;;;;;20989018;28;20040;-44
2021/11/23 10:35:24;;;;;;;1.48;0.70;;;10.20;99.90;;;;;;20979118;28;20035;-45
2021/11/23 10:45:26;;;;;;;4.45;0.90;;;10.20;99.90;;;;;;20992436;28;20051;-44
2021/11/23 10:55:30;;;;;;;1.20;0.35;;;10.70;99.90;;;;;;20990932;28;20044;-45
2021/11/23 11:05:41;;;;;;;0.95;0.20;;;10.20;99.90;;;;;;20970472;28;20718;-44
2021/11/23 11:15:50;;;;;;;0.93;0.13;;;9.90;99.90;;;;;;20987823;28;20054;-44
2021/11/23 11:25:59;;;;;;;1.02;0.40;;;9.80;99.90;;;;;;21002892;28;20048;-44
2021/11/23 11:36:00;;;;;;;0.57;0.20;;;10.00;99.90;;;;;;21004256;28;20035;-44
2021/11/23 11:46:02;;;;;;;0.17;0.10;;;10.20;99.90;;;;;;20982118;28;20555;-45
2021/11/23 11:56:05;;;;;;;2.28;0.20;;;10.30;99.90;;;;;;20992388;28;20387;-44
2021/11/23 12:06:07;;;;;;;0.73;0.30;;;10.50;99.90;;;;;;20987835;28;20495;-45
2021/11/23 12:16:36;;;;;;;5.30;0.32;;;10.60;99.90;;;;;;20988943;28;20036;-44
2021/11/23 12:26:38;;;;;;;0.30;0.10;;;10.60;99.90;;;;;;20986626;28;21440;-45
2021/11/23 12:36:46;;;;;;;8.88;0.43;;;10.50;99.90;;;;;;20984558;28;20530;-45
2021/11/23 12:47:03;;;;;;;1.55;0.93;;;10.50;99.90;;;;;;20981933;28;20049;-45
2021/11/23 12:57:18;;;;;;;1.10;0.37;;;11.00;99.90;;;;;;20983999;28;20043;-45
2021/11/23 13:07:20;;;;;;;5.03;0.95;;;12.10;99.90;;;;;;20983549;28;20047;-45
2021/11/23 13:17:43;;;;;;;0.77;0.10;;;11.80;99.90;;;;;;20981226;28;20039;-45
2021/11/23 13:27:44;;;;;;;0.32;0.20;;;12.70;99.90;;;;;;20986034;28;20688;-45
2021/11/23 13:37:49;;;;;;;0.68;0.13;;;12.70;99.90;;;;;;20993481;28;20028;-45
2021/11/23 13:47:51;;;;;;;1.20;0.30;;;11.90;99.90;;;;;;20995862;28;20053;-45
2021/11/23 13:57:53;;;;;;;0.93;0.30;;;11.20;99.90;;;;;;21009669;28;20040;-45
2021/11/23 14:07:55;;;;;;;1.55;0.20;;;10.90;99.90;;;;;;20994932;28;20039;-45
2021/11/23 14:18:01;;;;;;;2.80;0.10;;;10.70;99.90;;;;;;20986453;28;20487;-45
2021/11/23 14:28:05;;;;;;;0.50;0.20;;;10.50;99.90;;;;;;20990109;28;20387;-45
2021/11/23 14:38:07;;;;;;;0.40;0.10;;;10.30;99.90;;;;;;20982670;28;20427;-45
2021/11/23 14:48:08;;;;;;;0.25;0.10;;;10.30;99.90;;;;;;20986650;28;20415;-45
2021/11/23 14:58:09;;;;;;;0.10;0.00;;;10.30;99.90;;;;;;20983750;28;20511;-45
2021/11/23 15:08:12;;;;;;;1.70;0.08;;;10.10;99.90;;;;;;20985408;28;20448;-45
2021/11/23 15:18:14;;;;;;;0.05;0.00;;;10.00;99.90;;;;;;20978472;28;20036;-45
2021/11/23 15:28:16;;;;;;;0.15;0.03;;;9.90;99.90;;;;;;20964840;28;20044;-45
2021/11/23 15:38:17;;;;;;;0.95;0.32;;;9.80;99.90;;;;;;20977646;28;20748;-45
2021/11/23 15:48:18;;;;;;;0.55;0.25;;;9.70;99.90;;;;;;20974104;28;20052;-44
2021/11/23 15:58:24;;;;;;;0.80;0.25;;;9.70;99.90;;;;;;20974806;28;20032;-45
2021/11/23 16:08:26;;;;;;;0.55;0.10;;;9.60;99.90;;;;;;20978693;28;20036;-44
2021/11/23 16:18:27;;;;;;;1.38;0.22;;;9.50;99.90;;;;;;20954296;28;20392;-45
2021/11/23 16:28:28;;;;;;;0.70;0.15;;;9.50;99.90;;;;;;20972550;28;20040;-45
2021/11/23 16:38:29;;;;;;;1.02;0.10;;;9.50;99.90;;;;;;20979881;28;20044;-45
2021/11/23 16:48:31;;;;;;;0.28;0.10;;;9.40;99.90;;;;;;20971389;28;20048;-45
2021/11/23 16:58:36;;;;;;;1.35;0.20;;;9.40;99.90;;;;;;20970475;28;20028;-45
2021/11/23 17:08:37;;;;;;;1.08;0.30;;;9.40;99.90;;;;;;20976237;28;20052;-45
2021/11/23 17:18:38;;;;;;;1.25;0.55;;;9.30;99.90;;;;;;20978910;28;20127;-45
2021/11/23 17:28:39;;;;;;;1.45;0.65;;;9.20;99.90;;;;;;20974906;28;20047;-44
2021/11/23 17:38:40;;;;;;;3.58;0.55;;;9.00;99.90;;;;;;20973457;28;20040;-44
2021/11/23 17:48:42;;;;;;;1.33;0.60;;;8.80;99.90;;;;;;21000908;28;20039;-45
2021/11/23 17:58:43;;;;;;;1.85;0.65;;;8.50;99.90;;;;;;20995269;28;20047;-45
2021/11/23 18:08:46;;;;;;;2.83;1.42;;;8.30;99.90;;;;;;20997170;28;20052;-45
2021/11/23 18:18:48;;;;;;;1.10;0.50;;;8.00;99.90;;;;;;21010737;28;20036;-45
2021/11/23 18:28:52;;;;;;;1.77;0.70;;;7.80;99.90;;;;;;21001646;28;20391;-45
2021/11/23 18:38:53;;;;;;;2.33;0.82;;;7.60;99.90;;;;;;21010399;28;20036;-45
2021/11/23 18:48:54;;;;;;;2.97;0.90;;;7.40;99.90;;;;;;21005033;28;20040;-45
2021/11/23 18:58:56;;;;;;;2.08;1.15;;;7.20;99.90;;;;;;21018043;28;20101;-45
2021/11/23 19:08:57;;;;;;;3.55;1.10;;;7.20;99.90;;;;;;21012728;28;20129;-45
2021/11/23 19:18:58;;;;;;;7.43;1.98;;;7.00;99.90;;;;;;21005398;28;20040;-45
2021/11/23 19:29:00;;;;;;;3.70;1.52;;;6.80;99.90;;;;;;20974418;28;20063;-46
2021/11/23 19:39:04;;;;;;;4.07;1.60;;;6.70;99.90;;;;;;20986550;28;20040;-46
2021/11/23 19:49:05;;;;;;;3.38;1.20;;;6.70;99.90;;;;;;20977058;28;20948;-46
2021/11/23 19:59:07;;;;;;;6.43;2.17;;;6.50;99.90;;;;;;20976641;28;20551;-46
2021/11/23 20:09:08;;;;;;;3.83;1.75;;;6.40;99.90;;;;;;20975124;28;20054;-46
2021/11/23 20:19:12;;;;;;;3.38;2.08;;;6.30;99.90;;;;;;20979212;28;20037;-46
2021/11/23 20:29:17;;;;;;;4.18;2.55;;;6.20;99.90;;;;;;20960040;28;20046;-46
2021/11/23 20:39:18;;;;;;;6.35;2.40;;;6.30;99.90;;;;;;20952431;28;20470;-46
2021/11/23 20:49:19;;;;;;;5.85;3.00;;;6.50;99.90;;;;;;20955509;28;20049;-46
2021/11/23 20:59:20;;;;;;;5.78;2.72;;;6.40;99.90;;;;;;20960192;28;20052;-46
2021/11/23 21:09:21;;;;;;;5.47;3.08;;;6.70;99.90;;;;;;20965011;28;20032;-46
2021/11/23 21:19:24;;;;;;;7.05;2.47;;;6.80;99.90;;;;;;20959385;28;20044;-46
2021/11/23 21:29:25;;;;;;;5.80;3.55;;;6.80;99.90;;;;;;20956149;28;20036;-46
2021/11/23 21:39:26;;;;;;;5.82;2.63;;;6.80;99.90;;;;;;20974824;28;20049;-45
2021/11/23 21:49:27;;;;;;;6.55;2.67;;;6.80;99.90;;;;;;20981975;28;20296;-46
2021/11/23 21:59:28;;;;;;;8.13;2.97;;;6.80;99.90;;;;;;20984185;28;20412;-46
2021/11/23 22:09:31;;;;;;;5.97;2.13;;;6.80;99.90;;;;;;20978594;28;20044;-46
2021/11/23 22:19:32;;;;;;;6.47;3.30;;;6.90;99.90;;;;;;20973776;28;20587;-46
2021/11/23 22:29:33;;;;;;;5.93;2.97;;;6.90;99.90;;;;;;20967441;28;20443;-46
2021/11/23 22:39:35;;;;;;;4.95;3.08;;;7.10;99.90;;;;;;20985854;28;20033;-46
2021/11/23 22:49:36;;;;;;;8.35;3.47;;;7.10;99.90;;;;;;20978929;28;20636;-46
2021/11/23 22:59:38;;;;;;;9.70;4.22;;;7.10;99.90;;;;;;20981840;28;20055;-46
2021/11/23 23:09:39;;;;;;;6.32;3.60;;;7.10;99.90;;;;;;20981909;28;20048;-46
2021/11/23 23:19:40;;;;;;;5.32;3.85;;;7.10;99.90;;;;;;20984623;28;20048;-46
2021/11/23 23:29:42;;;;;;;5.68;2.92;;;7.10;99.90;;;;;;20978849;28;20028;-46
2021/11/23 23:39:43;;;;;;;6.13;3.08;;;7.10;99.90;;;;;;20977041;28;20526;-46
2021/11/23 23:49:44;;;;;;;7.13;3.35;;;7.10;99.90;;;;;;20975777;28;20054;-46
2021/11/23 23:59:46;;;;;;;4.30;2.58;;;7.00;99.90;;;;;;20982800;28;20518;-46
